createdAt,value
2023-03-15T00:00:29.014Z,1.83
2023-03-15T00:02:55.444Z,1.86
2023-03-15T00:05:21.989Z,1.91
2023-03-15T00:07:48.436Z,1.87
2023-03-15T00:10:14.940Z,1.92
2023-03-15T00:12:41.422Z,1.92
2023-03-15T00:15:08.432Z,1.92
2023-03-15T00:17:34.948Z,1.92
2023-03-15T00:20:01.557Z,1.90
2023-03-15T00:22:28.086Z,1.91
2023-03-15T00:24:54.512Z,1.99
2023-03-15T00:27:21.192Z,2.00
2023-03-15T00:29:47.616Z,1.91
2023-03-15T00:32:14.106Z,1.94
2023-03-15T00:34:40.549Z,1.96
2023-03-15T00:37:06.943Z,2.01
2023-03-15T00:39:33.405Z,2.03
2023-03-15T00:41:59.914Z,1.99
2023-03-15T00:44:26.358Z,2.02
2023-03-15T00:46:52.828Z,2.09
2023-03-15T00:49:19.351Z,1.94
2023-03-15T00:51:45.848Z,1.96
2023-03-15T00:54:12.343Z,2.02
2023-03-15T00:56:38.757Z,2.06
2023-03-15T00:59:05.295Z,2.08
2023-03-15T01:01:31.745Z,1.98
2023-03-15T01:03:58.218Z,1.88
2023-03-15T01:06:25.674Z,1.88
2023-03-15T01:08:52.213Z,1.87
2023-03-15T01:11:19.385Z,1.91
2023-03-15T01:13:45.916Z,1.98
2023-03-15T01:16:12.790Z,1.87
2023-03-15T01:18:39.408Z,1.48
2023-03-15T01:21:06.422Z,1.29
2023-03-15T01:23:32.889Z,1.27
2023-03-15T01:26:02.569Z,1.06
2023-03-15T01:28:29.209Z,1.08
2023-03-15T01:30:55.682Z,1.07
2023-03-15T01:33:23.344Z,0.96
2023-03-15T01:35:57.773Z,1.02
2023-03-15T01:38:24.199Z,0.93
2023-03-15T01:40:50.613Z,0.81
2023-03-15T01:43:17.999Z,0.84
2023-03-15T01:45:54.530Z,0.98
2023-03-15T01:48:21.361Z,0.91
2023-03-15T01:50:48.441Z,0.92
2023-03-15T01:53:14.884Z,0.78
2023-03-15T01:55:41.296Z,0.63
2023-03-15T01:58:07.785Z,0.73
2023-03-15T02:00:34.258Z,0.45
2023-03-15T02:03:08.688Z,0.32
2023-03-15T02:05:39.782Z,0.34
2023-03-15T02:08:06.301Z,0.34
2023-03-15T02:10:37.493Z,0.44
2023-03-15T02:13:03.969Z,0.47
2023-03-15T02:15:30.502Z,0.44
2023-03-15T02:17:57.121Z,0.29
2023-03-15T02:20:27.411Z,0.12
2023-03-15T02:22:55.252Z,-0.02
2023-03-15T02:25:39.743Z,-0.07
2023-03-15T02:28:06.675Z,-0.15
2023-03-15T02:30:33.358Z,-0.07
2023-03-15T02:32:59.955Z,-0.06
2023-03-15T02:35:27.386Z,-0.04
2023-03-15T02:37:53.900Z,-0.23
2023-03-15T02:40:21.131Z,-0.36
2023-03-15T02:42:48.125Z,-0.32
2023-03-15T02:45:14.649Z,-0.41
2023-03-15T02:47:41.198Z,-0.40
2023-03-15T02:50:07.828Z,-0.35
2023-03-15T02:52:34.419Z,-0.32
2023-03-15T02:55:00.838Z,-0.46
2023-03-15T02:57:27.252Z,-0.51
2023-03-15T02:59:53.696Z,-0.32
2023-03-15T03:02:20.185Z,-0.19
2023-03-15T03:04:46.681Z,-0.25
2023-03-15T03:07:13.168Z,-0.25
2023-03-15T03:09:39.598Z,-0.31
2023-03-15T03:12:06.191Z,-0.22
2023-03-15T03:14:32.665Z,-0.32
2023-03-15T03:16:59.154Z,-0.12
2023-03-15T03:19:25.886Z,-0.26
2023-03-15T03:21:52.839Z,-0.32
2023-03-15T03:24:19.200Z,-0.29
2023-03-15T03:26:45.653Z,-0.07
2023-03-15T03:29:12.108Z,-0.33
2023-03-15T03:31:38.883Z,-0.22
2023-03-15T03:34:05.394Z,-0.35
2023-03-15T03:36:31.957Z,-0.27
2023-03-15T03:38:58.417Z,-0.32
2023-03-15T03:41:24.953Z,-0.37
2023-03-15T03:43:51.392Z,-0.53
2023-03-15T03:46:17.808Z,-0.48
2023-03-15T03:48:44.244Z,-0.49
2023-03-15T03:51:10.655Z,-0.46
2023-03-15T03:53:37.114Z,-0.38
2023-03-15T03:56:06.845Z,-0.35
2023-03-15T03:58:33.362Z,-0.39
2023-03-15T04:01:00.221Z,-0.51
2023-03-15T04:03:26.659Z,-0.60
2023-03-15T04:05:56.396Z,-0.56
2023-03-15T04:08:23.177Z,-0.65
2023-03-15T04:10:50.498Z,-0.65
2023-03-15T04:13:17.063Z,-0.65
2023-03-15T04:15:43.525Z,-0.65
2023-03-15T04:18:09.962Z,-0.76
2023-03-15T04:20:36.436Z,-0.58
2023-03-15T04:23:02.922Z,-0.62
2023-03-15T04:25:29.457Z,-0.59
2023-03-15T04:27:55.957Z,-0.52
2023-03-15T04:30:22.401Z,-0.54
2023-03-15T04:32:48.855Z,-0.57
2023-03-15T04:35:15.291Z,-0.59
2023-03-15T04:37:41.784Z,-0.51
2023-03-15T04:40:08.658Z,-0.47
2023-03-15T04:42:35.093Z,-0.53
2023-03-15T04:45:01.588Z,-0.51
2023-03-15T04:47:28.122Z,-0.52
2023-03-15T04:49:54.536Z,-0.51
2023-03-15T04:52:20.957Z,-0.50
2023-03-15T04:54:47.414Z,-0.54
2023-03-15T04:57:13.812Z,-0.67
2023-03-15T04:59:40.231Z,-0.56
2023-03-15T05:02:06.793Z,-0.59
2023-03-15T05:04:33.219Z,-0.52
2023-03-15T05:06:59.722Z,-0.70
2023-03-15T05:09:26.184Z,-0.82
2023-03-15T05:11:52.698Z,-0.84
2023-03-15T05:14:19.185Z,-0.70
2023-03-15T05:16:45.699Z,-0.71
2023-03-15T05:19:12.133Z,-0.74
2023-03-15T05:21:38.551Z,-0.74
2023-03-15T05:24:05.169Z,-0.75
2023-03-15T05:26:31.677Z,-0.66
2023-03-15T05:28:58.184Z,-0.60
2023-03-15T05:31:24.743Z,-0.60
2023-03-15T05:33:51.356Z,-0.49
2023-03-15T05:36:17.775Z,-0.48
2023-03-15T05:38:45.690Z,-0.42
2023-03-15T05:41:12.357Z,-0.38
2023-03-15T05:43:38.922Z,-0.40
2023-03-15T05:46:05.646Z,-0.43
2023-03-15T05:48:32.134Z,-0.40
2023-03-15T05:50:59.057Z,-0.45
2023-03-15T05:53:25.472Z,-0.51
2023-03-15T05:55:51.883Z,-0.52
2023-03-15T05:58:18.975Z,-0.53
2023-03-15T06:00:45.442Z,-0.50
2023-03-15T06:03:11.995Z,-0.56
2023-03-15T06:05:39.015Z,-0.56
2023-03-15T06:08:05.453Z,-0.55
2023-03-15T06:10:31.937Z,-0.62
2023-03-15T06:12:59.054Z,-0.65
2023-03-15T06:15:25.941Z,-0.76
2023-03-15T06:17:52.332Z,-0.66
2023-03-15T06:20:18.891Z,-0.70
2023-03-15T06:22:45.311Z,-0.63
2023-03-15T06:25:11.956Z,-0.66
2023-03-15T06:27:38.651Z,-0.61
2023-03-15T06:30:05.357Z,-0.59
2023-03-15T06:32:31.790Z,-0.54
2023-03-15T06:34:58.213Z,-0.51
2023-03-15T06:37:34.640Z,-0.22
2023-03-15T06:40:05.546Z,-0.04
2023-03-15T06:42:33.592Z,-0.12
2023-03-15T06:45:00.940Z,-0.04
2023-03-15T06:47:27.944Z,-0.08
2023-03-15T06:49:55.412Z,0.15
2023-03-15T06:52:23.216Z,0.17
2023-03-15T06:54:49.599Z,0.26
2023-03-15T06:57:18.215Z,0.13
2023-03-15T06:59:44.690Z,0.05
2023-03-15T07:02:16.585Z,0.05
2023-03-15T07:04:43.877Z,0.03
2023-03-15T07:07:12.922Z,-0.26
2023-03-15T07:09:39.900Z,-0.15
2023-03-15T07:12:06.535Z,-0.32
2023-03-15T07:14:36.088Z,-0.22
2023-03-15T07:17:03.888Z,-0.12
2023-03-15T07:19:30.374Z,0.32
2023-03-15T07:21:56.840Z,0.35
2023-03-15T07:24:23.218Z,0.27
2023-03-15T07:26:50.548Z,0.10
2023-03-15T07:29:17.028Z,0.12
2023-03-15T07:31:43.538Z,0.04
2023-03-15T07:34:09.961Z,0.32
2023-03-15T07:36:36.871Z,0.40
2023-03-15T07:39:03.350Z,0.43
2023-03-15T07:41:29.747Z,0.35
2023-03-15T07:43:58.488Z,0.46
2023-03-15T07:46:25.109Z,0.90
2023-03-15T07:48:51.546Z,0.69
2023-03-15T07:51:19.838Z,0.58
2023-03-15T07:53:46.816Z,0.50
2023-03-15T07:56:13.243Z,0.24
2023-03-15T07:58:39.600Z,0.26
2023-03-15T08:01:05.992Z,0.13
2023-03-15T08:03:32.379Z,0.01
2023-03-15T08:05:58.875Z,0.09
2023-03-15T08:08:25.808Z,0.13
2023-03-15T08:10:52.217Z,0.18
2023-03-15T08:13:18.669Z,1.23
2023-03-15T08:15:45.652Z,3.58
2023-03-15T08:18:12.089Z,3.08
2023-03-15T08:20:38.622Z,4.88
2023-03-15T08:23:05.033Z,5.09
2023-03-15T08:25:31.489Z,3.79
2023-03-15T08:27:57.892Z,3.60
2023-03-15T08:30:24.292Z,3.32
2023-03-15T08:32:52.452Z,2.67
2023-03-15T08:35:20.940Z,2.64
2023-03-15T08:37:47.344Z,2.19
2023-03-15T08:40:14.513Z,2.02
2023-03-15T08:42:40.957Z,2.20
2023-03-15T08:45:08.190Z,2.69
2023-03-15T08:47:34.861Z,2.38
2023-03-15T08:50:02.077Z,2.45
2023-03-15T08:52:28.575Z,2.48
2023-03-15T08:54:54.923Z,2.75
2023-03-15T08:57:21.358Z,3.65
2023-03-15T08:59:47.851Z,4.44
2023-03-15T09:02:14.351Z,3.13
2023-03-15T09:04:41.017Z,3.60
2023-03-15T09:07:07.594Z,3.77
2023-03-15T09:09:34.079Z,4.23
2023-03-15T09:12:01.670Z,4.05
2023-03-15T09:14:28.110Z,3.46
2023-03-15T09:16:54.731Z,3.59
2023-03-15T09:19:21.253Z,4.90
2023-03-15T09:21:47.804Z,6.45
2023-03-15T09:24:14.369Z,6.74
2023-03-15T09:26:40.808Z,7.33
2023-03-15T09:29:07.326Z,7.15
2023-03-15T09:31:33.825Z,5.82
2023-03-15T09:34:00.232Z,6.60
2023-03-15T09:36:26.663Z,8.69
2023-03-15T09:38:53.628Z,9.77
2023-03-15T09:41:25.773Z,10.58
2023-03-15T09:44:16.632Z,10.36
2023-03-15T09:46:55.352Z,8.43
2023-03-15T09:49:32.612Z,8.19
2023-03-15T09:52:32.622Z,6.43
2023-03-15T09:55:00.241Z,5.59
2023-03-15T09:57:30.714Z,5.34
2023-03-15T09:59:57.684Z,5.62
2023-03-15T10:02:25.482Z,4.71
2023-03-15T10:04:52.324Z,5.31
2023-03-15T10:07:18.830Z,8.30
2023-03-15T10:09:45.374Z,9.45
2023-03-15T10:12:12.550Z,10.12
2023-03-15T10:14:59.272Z,9.97
2023-03-15T10:17:41.664Z,9.44
2023-03-15T10:20:18.982Z,10.55
2023-03-15T10:23:06.849Z,10.17
2023-03-15T10:25:33.375Z,9.39
2023-03-15T10:27:59.882Z,8.69
2023-03-15T10:30:30.301Z,6.61
2023-03-15T10:33:04.061Z,5.65
2023-03-15T10:35:30.651Z,7.61
2023-03-15T10:37:57.544Z,8.43
2023-03-15T10:40:42.810Z,7.60
2023-03-15T10:43:25.533Z,7.76
2023-03-15T10:45:58.071Z,6.68
2023-03-15T10:48:25.837Z,8.13
2023-03-15T10:50:54.532Z,9.39
2023-03-15T10:53:21.029Z,7.52
2023-03-15T10:55:47.701Z,7.63
2023-03-15T10:58:20.248Z,5.66
2023-03-15T11:00:53.681Z,5.98
2023-03-15T11:03:21.244Z,6.66
2023-03-15T11:05:48.612Z,7.30
2023-03-15T11:08:18.926Z,8.43
2023-03-15T11:10:45.952Z,7.59
2023-03-15T11:13:22.229Z,7.21
2023-03-15T11:16:07.457Z,7.00
2023-03-15T11:18:38.979Z,7.12
2023-03-15T11:21:06.887Z,6.52
2023-03-15T11:23:37.165Z,6.50
2023-03-15T11:26:03.691Z,6.81
2023-03-15T11:28:31.450Z,6.60
2023-03-15T11:30:59.451Z,6.50
2023-03-15T11:33:25.840Z,5.72
2023-03-15T11:35:52.324Z,5.20
2023-03-15T11:38:23.453Z,4.79
2023-03-15T11:40:59.180Z,5.41
2023-03-15T11:43:41.442Z,6.08
2023-03-15T11:46:13.512Z,5.92
2023-03-15T11:48:39.980Z,5.77
2023-03-15T11:51:08.416Z,5.90
2023-03-15T11:53:35.941Z,6.02
2023-03-15T11:56:22.550Z,6.14
2023-03-15T11:59:05.630Z,6.37
2023-03-15T12:01:33.214Z,6.27
2023-03-15T12:04:18.907Z,6.51
2023-03-15T12:06:45.934Z,6.32
2023-03-15T12:09:48.003Z,5.33
2023-03-15T12:12:26.569Z,4.96
2023-03-15T12:15:06.426Z,5.38
2023-03-15T12:17:37.809Z,5.47
2023-03-15T12:20:17.813Z,6.11
2023-03-15T12:22:48.367Z,6.27
2023-03-15T12:25:17.986Z,5.85
2023-03-15T12:27:48.897Z,5.67
2023-03-15T12:30:18.766Z,5.76
2023-03-15T12:32:46.551Z,5.45
2023-03-15T12:35:16.385Z,5.47
2023-03-15T12:37:43.803Z,5.15
2023-03-15T12:40:18.080Z,5.37
2023-03-15T12:42:47.284Z,5.46
2023-03-15T12:45:17.350Z,5.70
2023-03-15T12:47:46.871Z,5.47
2023-03-15T12:50:32.590Z,5.68
2023-03-15T12:52:59.826Z,5.26
2023-03-15T12:55:29.265Z,5.59
2023-03-15T12:57:55.932Z,5.91
2023-03-15T13:00:22.577Z,6.29
2023-03-15T13:02:50.307Z,6.12
2023-03-15T13:05:16.712Z,6.07
2023-03-15T13:07:54.001Z,6.10
2023-03-15T13:10:31.269Z,5.83
2023-03-15T13:13:03.426Z,5.97
2023-03-15T13:15:31.241Z,6.28
2023-03-15T13:17:57.923Z,6.52
2023-03-15T13:20:43.215Z,6.59
2023-03-15T13:23:26.388Z,6.95
2023-03-15T13:25:52.768Z,6.63
2023-03-15T13:28:27.268Z,6.64
2023-03-15T13:30:54.018Z,6.21
2023-03-15T13:33:24.618Z,5.73
2023-03-15T13:36:01.321Z,5.55
2023-03-15T13:38:29.158Z,5.67
2023-03-15T13:40:56.228Z,5.90
2023-03-15T13:43:28.211Z,6.02
2023-03-15T13:45:57.208Z,5.62
2023-03-15T13:48:23.666Z,5.35
2023-03-15T13:50:50.259Z,5.74
2023-03-15T13:53:18.865Z,5.45
2023-03-15T13:55:49.319Z,5.46
2023-03-15T13:58:15.702Z,5.19
2023-03-15T14:00:42.118Z,4.95
2023-03-15T14:03:11.249Z,4.73
2023-03-15T14:05:44.587Z,4.86
2023-03-15T14:08:22.330Z,5.03
2023-03-15T14:11:07.371Z,4.66
2023-03-15T14:13:34.545Z,4.79
2023-03-15T14:16:07.859Z,4.50
2023-03-15T14:18:35.345Z,4.48
2023-03-15T14:21:03.154Z,4.49
2023-03-15T14:23:29.826Z,4.83
2023-03-15T14:26:00.041Z,4.92
2023-03-15T14:28:26.549Z,4.48
2023-03-15T14:30:56.720Z,4.45
2023-03-15T14:33:40.138Z,4.52
2023-03-15T14:36:09.938Z,4.35
2023-03-15T14:38:38.736Z,4.25
2023-03-15T14:41:23.324Z,4.14
2023-03-15T14:43:49.824Z,4.10
2023-03-15T14:46:16.655Z,3.97
2023-03-15T14:48:43.216Z,4.10
2023-03-15T14:51:13.781Z,3.94
2023-03-15T14:53:40.398Z,4.10
2023-03-15T14:56:07.081Z,4.10
2023-03-15T14:58:33.556Z,3.70
2023-03-15T15:01:01.874Z,3.65
2023-03-15T15:03:36.073Z,3.55
2023-03-15T15:06:02.545Z,3.45
2023-03-15T15:08:29.083Z,3.61
2023-03-15T15:10:55.904Z,3.86
2023-03-15T15:13:24.094Z,3.82
2023-03-15T15:15:56.085Z,3.97
2023-03-15T15:18:26.607Z,3.65
2023-03-15T15:20:53.534Z,3.65
2023-03-15T15:23:20.779Z,3.32
2023-03-15T15:25:47.369Z,3.78
2023-03-15T15:28:23.918Z,3.50
2023-03-15T15:31:00.048Z,3.59
2023-03-15T15:33:26.470Z,3.25
2023-03-15T15:35:53.882Z,2.80
2023-03-15T15:38:21.061Z,2.69
2023-03-15T15:40:47.587Z,2.67
2023-03-15T15:43:13.999Z,2.83
2023-03-15T15:45:40.492Z,2.69
2023-03-15T15:48:06.955Z,2.78
2023-03-15T15:50:33.664Z,2.67
2023-03-15T15:53:01.377Z,2.83
2023-03-15T15:55:28.613Z,2.50
2023-03-15T15:57:55.110Z,2.67
2023-03-15T16:00:22.544Z,2.86
2023-03-15T16:02:49.090Z,3.03
2023-03-15T16:05:15.499Z,2.90
2023-03-15T16:07:42.016Z,2.70
2023-03-15T16:10:08.744Z,2.72
2023-03-15T16:12:35.217Z,2.71
2023-03-15T16:15:01.603Z,2.74
2023-03-15T16:17:28.983Z,2.62
2023-03-15T16:19:55.379Z,2.58
2023-03-15T16:22:22.522Z,2.45
2023-03-15T16:24:50.297Z,2.46
2023-03-15T16:27:17.932Z,2.39
2023-03-15T16:29:45.104Z,2.34
2023-03-15T16:32:20.631Z,2.24
2023-03-15T16:34:49.909Z,2.12
2023-03-15T16:37:17.005Z,2.04
2023-03-15T16:39:44.524Z,2.11
2023-03-15T16:42:11.584Z,2.23
2023-03-15T16:44:37.979Z,2.23
2023-03-15T16:47:04.412Z,2.11
2023-03-15T16:49:30.859Z,2.05
2023-03-15T16:51:57.304Z,2.09
2023-03-15T16:54:39.966Z,1.95
2023-03-15T16:57:20.906Z,1.87
2023-03-15T16:59:47.348Z,1.64
2023-03-15T17:02:20.818Z,1.79
2023-03-15T17:04:47.397Z,1.59
2023-03-15T17:07:13.968Z,1.62
2023-03-15T17:09:41.333Z,1.69
2023-03-15T17:12:12.455Z,1.63
2023-03-15T17:14:38.953Z,1.68
2023-03-15T17:17:05.537Z,1.51
2023-03-15T17:19:32.063Z,1.69
2023-03-15T17:21:58.838Z,1.53
2023-03-15T17:24:25.249Z,1.65
2023-03-15T17:26:51.662Z,1.64
2023-03-15T17:29:18.118Z,1.68
2023-03-15T17:31:44.627Z,1.54
2023-03-15T17:34:11.172Z,1.46
2023-03-15T17:36:37.660Z,1.53
2023-03-15T17:39:04.820Z,1.39
2023-03-15T17:41:31.622Z,1.30
2023-03-15T17:43:58.036Z,1.27
2023-03-15T17:46:25.082Z,1.20
2023-03-15T17:48:51.802Z,1.26
2023-03-15T17:51:21.641Z,1.32
2023-03-15T17:53:48.063Z,1.39
2023-03-15T17:56:14.478Z,1.20
2023-03-15T17:58:41.003Z,1.31
2023-03-15T18:01:14.537Z,1.17
2023-03-15T18:03:41.025Z,1.09
2023-03-15T18:06:09.425Z,1.06
2023-03-15T18:08:35.936Z,1.00
2023-03-15T18:11:02.740Z,0.85
2023-03-15T18:13:29.159Z,0.96
2023-03-15T18:15:55.614Z,0.81
2023-03-15T18:18:22.763Z,0.91
2023-03-15T18:20:49.121Z,0.82
2023-03-15T18:23:15.731Z,0.84
2023-03-15T18:25:42.263Z,0.68
2023-03-15T18:28:08.772Z,0.66
2023-03-15T18:30:35.306Z,0.45
2023-03-15T18:33:01.821Z,0.53
2023-03-15T18:35:29.428Z,0.41
2023-03-15T18:37:55.850Z,0.35
2023-03-15T18:40:22.212Z,0.26
2023-03-15T18:42:48.762Z,0.21
2023-03-15T18:45:22.617Z,0.26
2023-03-15T18:47:49.822Z,0.17
2023-03-15T18:50:16.383Z,0.12
2023-03-15T18:52:42.811Z,0.16
2023-03-15T18:55:11.825Z,0.04
2023-03-15T18:57:38.668Z,-0.08
2023-03-15T19:00:05.280Z,-0.11
2023-03-15T19:02:32.724Z,-0.20
2023-03-15T19:04:59.163Z,-0.89
2023-03-15T19:07:25.567Z,-1.17
2023-03-15T19:09:52.008Z,-0.99
2023-03-15T19:12:18.478Z,-0.97
2023-03-15T19:14:45.220Z,-0.95
2023-03-15T19:17:11.855Z,-1.00
2023-03-15T19:19:38.638Z,-0.95
2023-03-15T19:22:05.076Z,-1.01
2023-03-15T19:24:31.578Z,-0.88
2023-03-15T19:26:58.042Z,-1.07
2023-03-15T19:29:24.551Z,-1.29
2023-03-15T19:31:51.019Z,-1.15
2023-03-15T19:34:17.362Z,-1.02
2023-03-15T19:36:43.904Z,-0.95
2023-03-15T19:39:10.610Z,-1.11
2023-03-15T19:41:37.072Z,-1.12
2023-03-15T19:44:03.579Z,-1.03
2023-03-15T19:46:30.141Z,-1.23
2023-03-15T19:48:56.890Z,-1.36
2023-03-15T19:51:23.401Z,-1.17
2023-03-15T19:53:49.809Z,-1.22
2023-03-15T19:56:16.649Z,-1.34
2023-03-15T19:58:43.076Z,-1.15
2023-03-15T20:01:09.665Z,-1.41
2023-03-15T20:03:36.192Z,-1.40
2023-03-15T20:06:10.043Z,-1.27
2023-03-15T20:08:36.549Z,-1.35
2023-03-15T20:11:03.024Z,-1.29
2023-03-15T20:13:30.006Z,-1.27
2023-03-15T20:15:56.504Z,-1.19
2023-03-15T20:18:23.066Z,-1.14
2023-03-15T20:20:50.475Z,-1.09
2023-03-15T20:23:17.087Z,-1.03
2023-03-15T20:25:43.567Z,-0.87
2023-03-15T20:28:10.331Z,-0.91
2023-03-15T20:30:40.002Z,-0.91
2023-03-15T20:33:06.844Z,-0.95
2023-03-15T20:35:34.458Z,-0.98
2023-03-15T20:38:00.982Z,-1.01
2023-03-15T20:40:27.481Z,-1.07
2023-03-15T20:42:53.913Z,-1.30
2023-03-15T20:45:20.318Z,-1.16
2023-03-15T20:47:46.994Z,-1.25
2023-03-15T20:50:13.575Z,-1.36
2023-03-15T20:52:40.098Z,-1.41
2023-03-15T20:55:06.723Z,-1.35
2023-03-15T20:57:33.309Z,-1.47
2023-03-15T20:59:59.790Z,-1.60
2023-03-15T21:02:26.457Z,-1.74
2023-03-15T21:04:52.895Z,-1.82
2023-03-15T21:07:19.477Z,-1.81
2023-03-15T21:09:45.984Z,-1.89
2023-03-15T21:12:12.580Z,-1.71
2023-03-15T21:14:38.989Z,-1.73
2023-03-15T21:17:05.426Z,-1.81
2023-03-15T21:19:32.264Z,-1.97
2023-03-15T21:21:58.779Z,-1.99
2023-03-15T21:24:25.191Z,-2.06
2023-03-15T21:26:53.686Z,-2.08
2023-03-15T21:29:20.327Z,-2.14
2023-03-15T21:31:46.997Z,-2.27
2023-03-15T21:34:13.448Z,-2.20
2023-03-15T21:36:39.860Z,-2.45
2023-03-15T21:39:07.805Z,-2.53
2023-03-15T21:41:34.428Z,-2.50
2023-03-15T21:44:01.149Z,-2.54
2023-03-15T21:46:27.604Z,-2.61
2023-03-15T21:48:54.016Z,-2.58
2023-03-15T21:51:20.475Z,-2.60
2023-03-15T21:53:46.942Z,-2.82
2023-03-15T21:56:13.331Z,-2.69
2023-03-15T21:58:39.962Z,-2.87
2023-03-15T22:01:06.812Z,-2.99
2023-03-15T22:03:33.755Z,-2.90
2023-03-15T22:06:00.204Z,-2.97
2023-03-15T22:08:26.736Z,-2.93
2023-03-15T22:10:53.920Z,-2.90
2023-03-15T22:13:20.528Z,-2.89
2023-03-15T22:15:47.307Z,-3.00
2023-03-15T22:18:13.742Z,-2.97
2023-03-15T22:20:40.131Z,-3.05
2023-03-15T22:23:06.504Z,-3.04
2023-03-15T22:25:32.919Z,-3.04
2023-03-15T22:27:59.442Z,-3.04
2023-03-15T22:30:26.037Z,-2.98
2023-03-15T22:32:52.799Z,-3.19
2023-03-15T22:35:19.303Z,-3.12
2023-03-15T22:37:45.803Z,-3.19
2023-03-15T22:40:12.468Z,-3.16
2023-03-15T22:42:38.872Z,-3.25
2023-03-15T22:45:05.664Z,-3.25
2023-03-15T22:47:32.190Z,-3.24
2023-03-15T22:49:58.696Z,-3.30
2023-03-15T22:52:28.138Z,-3.24
2023-03-15T22:54:54.630Z,-3.31
2023-03-15T22:57:21.040Z,-3.32
2023-03-15T22:59:47.427Z,-3.40
2023-03-15T23:02:13.819Z,-3.43
2023-03-15T23:04:40.565Z,-3.46
2023-03-15T23:07:07.164Z,-3.48
2023-03-15T23:09:33.651Z,-3.54
2023-03-15T23:12:00.105Z,-3.54
2023-03-15T23:14:26.488Z,-3.55
2023-03-15T23:16:52.934Z,-3.59
2023-03-15T23:19:20.254Z,-3.60
2023-03-15T23:21:46.736Z,-3.61
2023-03-15T23:24:13.171Z,-3.76
2023-03-15T23:26:39.656Z,-3.77
2023-03-15T23:29:06.142Z,-3.83
2023-03-15T23:31:32.609Z,-3.71
2023-03-15T23:33:59.116Z,-3.83
2023-03-15T23:36:25.509Z,-3.94
2023-03-15T23:38:51.967Z,-3.93
2023-03-15T23:41:18.400Z,-3.95
2023-03-15T23:43:44.822Z,-4.04
2023-03-15T23:46:11.291Z,-3.97
2023-03-15T23:48:37.731Z,-3.87
2023-03-15T23:51:04.222Z,-4.14
2023-03-15T23:53:30.721Z,-4.12
2023-03-15T23:55:57.137Z,-4.23
2023-03-15T23:58:23.617Z,-4.13
